createdAt,value
2023-02-12T00:00:54.616Z,98316.75
2023-02-12T00:03:22.378Z,98317.50
2023-02-12T00:05:50.193Z,98314.50
2023-02-12T00:08:18.138Z,98310.81
2023-02-12T00:10:46.198Z,98295.88
2023-02-12T00:13:14.953Z,98287.75
2023-02-12T00:15:44.413Z,98286.44
2023-02-12T00:18:12.552Z,98290.50
2023-02-12T00:20:40.583Z,98295.53
2023-02-12T00:23:08.838Z,98287.16
2023-02-12T00:25:36.772Z,98282.38
2023-02-12T00:28:04.558Z,98289.19
2023-02-12T00:30:32.257Z,98288.31
2023-02-12T00:33:01.449Z,98286.06
2023-02-12T00:35:29.185Z,98282.34
2023-02-12T00:37:56.902Z,98280.81
2023-02-12T00:40:27.395Z,98272.81
2023-02-12T00:42:55.449Z,98282.84
2023-02-12T00:45:23.276Z,98285.47
2023-02-12T00:47:51.123Z,98290.72
2023-02-12T00:50:20.387Z,98277.56
2023-02-12T00:52:48.159Z,98299.06
2023-02-12T00:55:16.001Z,98300.94
2023-02-12T00:57:43.800Z,98314.56
2023-02-12T01:00:13.052Z,98317.53
2023-02-12T01:02:40.832Z,98316.97
2023-02-12T01:05:09.489Z,98306.47
2023-02-12T01:07:40.693Z,98299.69
2023-02-12T01:10:09.706Z,98291.31
2023-02-12T01:12:37.479Z,98284.00
2023-02-12T01:15:05.901Z,98297.13
2023-02-12T01:17:33.630Z,98292.09
2023-02-12T01:20:01.512Z,98287.59
2023-02-12T01:22:29.367Z,98295.81
2023-02-12T01:24:58.721Z,98297.84
2023-02-12T01:27:26.619Z,98281.97
2023-02-12T01:29:54.496Z,98282.59
2023-02-12T01:32:22.307Z,98281.31
2023-02-12T01:34:50.410Z,98285.69
2023-02-12T01:37:18.192Z,98280.91
2023-02-12T01:39:46.334Z,98288.78
2023-02-12T01:42:18.722Z,98288.75
2023-02-12T01:45:07.373Z,98283.13
2023-02-12T01:47:35.249Z,98284.19
2023-02-12T01:50:03.062Z,98233.00
2023-02-12T01:52:35.253Z,98295.03
2023-02-12T01:55:06.776Z,98299.13
2023-02-12T01:57:39.697Z,98303.75
2023-02-12T02:00:11.393Z,98283.84
2023-02-12T02:02:40.761Z,98287.38
2023-02-12T02:05:09.229Z,98283.72
2023-02-12T02:07:36.965Z,98276.81
2023-02-12T02:10:04.828Z,98282.31
2023-02-12T02:12:55.801Z,98265.50
2023-02-12T02:15:27.616Z,98264.06
2023-02-12T02:18:00.591Z,98265.50
2023-02-12T02:20:51.982Z,98268.94
2023-02-12T02:23:54.609Z,98269.19
2023-02-12T02:26:56.320Z,98262.38
2023-02-12T02:29:45.528Z,98260.47
2023-02-12T02:32:19.900Z,98267.06
2023-02-12T02:34:54.480Z,98267.91
2023-02-12T02:37:29.130Z,98264.44
2023-02-12T02:40:05.013Z,98270.16
2023-02-12T02:42:37.321Z,98269.69
2023-02-12T02:45:10.738Z,98270.50
2023-02-12T02:47:45.060Z,98258.69
2023-02-12T02:50:16.218Z,98254.63
2023-02-12T02:52:51.364Z,98255.47
2023-02-12T02:55:21.945Z,98258.44
2023-02-12T02:57:53.830Z,98265.22
2023-02-12T03:00:22.993Z,98265.97
2023-02-12T03:02:57.018Z,98270.59
2023-02-12T03:05:30.060Z,98275.00
2023-02-12T03:08:02.657Z,98261.06
2023-02-12T03:10:34.766Z,98256.38
2023-02-12T03:13:08.336Z,98264.84
2023-02-12T03:15:40.203Z,98257.34
2023-02-12T03:18:15.044Z,98254.00
2023-02-12T03:20:46.768Z,98251.63
2023-02-12T03:23:23.927Z,98256.06
2023-02-12T03:25:57.034Z,98257.72
2023-02-12T03:28:30.170Z,98263.91
2023-02-12T03:31:04.816Z,98264.38
2023-02-12T03:33:42.349Z,98259.34
2023-02-12T03:36:19.679Z,98261.72
2023-02-12T03:38:52.572Z,98265.03
2023-02-12T03:41:26.279Z,98255.50
2023-02-12T03:43:57.073Z,98256.88
2023-02-12T03:46:33.142Z,98257.94
2023-02-12T03:49:05.684Z,98269.66
2023-02-12T03:51:37.886Z,98255.00
2023-02-12T03:54:07.201Z,98242.69
2023-02-12T03:56:40.446Z,98258.06
2023-02-12T03:59:08.965Z,98251.38
2023-02-12T04:01:37.669Z,98257.44
2023-02-12T04:04:09.457Z,98252.66
2023-02-12T04:06:37.510Z,98269.22
2023-02-12T04:09:10.257Z,98263.47
2023-02-12T04:11:51.726Z,98260.16
2023-02-12T04:14:28.049Z,98268.22
2023-02-12T04:17:04.280Z,98263.63
2023-02-12T04:19:49.818Z,98272.00
2023-02-12T04:22:30.965Z,98275.25
2023-02-12T04:25:08.393Z,98269.88
2023-02-12T04:27:44.271Z,98277.75
2023-02-12T04:30:20.245Z,98275.81
2023-02-12T04:32:51.400Z,98286.59
2023-02-12T04:35:24.977Z,98288.41
2023-02-12T04:37:58.439Z,98279.94
2023-02-12T04:40:26.992Z,98282.13
2023-02-12T04:42:55.094Z,98274.97
2023-02-12T04:45:27.215Z,98281.81
2023-02-12T04:47:55.579Z,98287.53
2023-02-12T04:50:25.152Z,98290.34
2023-02-12T04:52:53.046Z,98277.94
2023-02-12T04:55:20.909Z,98284.41
2023-02-12T04:57:49.128Z,98290.78
2023-02-12T05:00:18.204Z,98288.16
2023-02-12T05:02:45.939Z,98285.56
2023-02-12T05:05:13.919Z,98295.09
2023-02-12T05:07:43.172Z,98274.53
2023-02-12T05:10:11.855Z,98280.59
2023-02-12T05:12:39.669Z,98276.19
2023-02-12T05:15:08.164Z,98280.56
2023-02-12T05:17:36.050Z,98269.00
2023-02-12T05:20:04.425Z,98282.16
2023-02-12T05:22:32.178Z,98292.41
2023-02-12T05:25:01.440Z,98277.19
2023-02-12T05:27:29.185Z,98274.56
2023-02-12T05:29:57.632Z,98266.97
2023-02-12T05:32:25.839Z,98282.31
2023-02-12T05:34:53.602Z,98266.75
2023-02-12T05:37:21.354Z,98275.22
2023-02-12T05:39:50.427Z,98275.69
2023-02-12T05:42:19.602Z,98262.41
2023-02-12T05:44:47.281Z,98276.53
2023-02-12T05:47:15.441Z,98281.31
2023-02-12T05:49:43.221Z,98280.72
2023-02-12T05:52:11.013Z,98272.81
2023-02-12T05:54:38.819Z,98277.81
2023-02-12T05:57:08.331Z,98286.16
2023-02-12T05:59:37.470Z,98276.88
2023-02-12T06:02:05.183Z,98269.72
2023-02-12T06:04:32.917Z,98276.63
2023-02-12T06:07:01.990Z,98271.34
2023-02-12T06:09:29.754Z,98266.81
2023-02-12T06:11:57.662Z,98270.88
2023-02-12T06:14:25.539Z,98270.19
2023-02-12T06:16:54.655Z,98267.22
2023-02-12T06:19:22.401Z,98263.53
2023-02-12T06:21:50.124Z,98275.00
2023-02-12T06:24:19.162Z,98269.47
2023-02-12T06:26:47.322Z,98263.16
2023-02-12T06:29:15.175Z,98262.34
2023-02-12T06:31:43.844Z,98276.53
2023-02-12T06:34:16.782Z,98245.53
2023-02-12T06:36:45.631Z,98270.44
2023-02-12T06:39:14.663Z,98253.03
2023-02-12T06:41:43.988Z,98256.97
2023-02-12T06:44:13.839Z,98263.66
2023-02-12T06:46:41.775Z,98262.84
2023-02-12T06:49:14.231Z,98262.28
2023-02-12T06:51:42.291Z,98260.59
2023-02-12T06:54:21.698Z,98256.53
2023-02-12T06:56:49.446Z,98276.38
2023-02-12T06:59:18.440Z,98221.81
2023-02-12T07:01:46.190Z,98272.34
2023-02-12T07:04:15.418Z,98270.19
2023-02-12T07:06:43.300Z,98264.22
2023-02-12T07:09:11.274Z,98267.81
2023-02-12T07:11:39.717Z,98274.03
2023-02-12T07:14:08.259Z,98288.72
2023-02-12T07:16:36.193Z,98261.13
2023-02-12T07:19:03.988Z,98289.53
2023-02-12T07:21:33.800Z,98288.78
2023-02-12T07:24:01.567Z,98285.44
2023-02-12T07:26:29.411Z,98293.66
2023-02-12T07:28:58.285Z,98289.34
2023-02-12T07:31:26.249Z,98279.16
2023-02-12T07:33:55.706Z,98282.31
2023-02-12T07:36:24.748Z,98284.59
2023-02-12T07:38:55.179Z,98274.63
2023-02-12T07:41:25.040Z,98275.22
2023-02-12T07:43:56.518Z,98280.22
2023-02-12T07:46:29.764Z,98283.91
2023-02-12T07:48:59.271Z,98283.31
2023-02-12T07:51:28.243Z,98289.59
2023-02-12T07:53:57.489Z,98287.34
2023-02-12T07:56:29.563Z,98281.75
2023-02-12T07:58:57.566Z,98282.59
2023-02-12T08:01:27.561Z,98281.53
2023-02-12T08:03:58.799Z,98278.84
2023-02-12T08:06:29.827Z,98280.53
2023-02-12T08:09:00.857Z,98273.28
2023-02-12T08:11:30.767Z,98272.19
2023-02-12T08:13:59.322Z,98279.41
2023-02-12T08:16:28.861Z,98285.97
2023-02-12T08:19:04.607Z,98272.31
2023-02-12T08:21:42.776Z,98276.41
2023-02-12T08:24:12.608Z,98281.47
2023-02-12T08:26:41.053Z,98279.28
2023-02-12T08:29:10.716Z,98286.63
2023-02-12T08:31:40.613Z,98283.69
2023-02-12T08:34:08.403Z,98287.41
2023-02-12T08:36:38.730Z,98281.16
2023-02-12T08:39:07.273Z,98277.59
2023-02-12T08:41:37.290Z,98278.00
2023-02-12T08:44:06.768Z,98259.03
2023-02-12T08:46:36.642Z,98280.81
2023-02-12T08:49:06.772Z,98273.16
2023-02-12T08:51:36.340Z,98278.03
2023-02-12T08:54:06.468Z,98275.06
2023-02-12T08:56:36.884Z,98267.28
2023-02-12T08:59:06.345Z,98260.66
2023-02-12T09:01:38.542Z,98266.28
2023-02-12T09:04:07.122Z,98253.41
2023-02-12T09:06:36.237Z,98259.06
2023-02-12T09:09:04.629Z,98252.41
2023-02-12T09:11:32.401Z,98246.31
2023-02-12T09:14:03.549Z,98247.59
2023-02-12T09:16:33.121Z,98252.59
2023-02-12T09:19:01.290Z,98241.63
2023-02-12T09:21:29.248Z,98242.94
2023-02-12T09:23:57.118Z,98241.50
2023-02-12T09:26:26.760Z,98239.50
2023-02-12T09:28:55.304Z,98243.63
2023-02-12T09:31:27.343Z,98227.25
2023-02-12T09:33:56.164Z,98241.63
2023-02-12T09:36:23.900Z,98235.56
2023-02-12T09:38:53.890Z,98223.22
2023-02-12T09:41:48.983Z,98231.41
2023-02-12T09:44:23.154Z,98232.81
2023-02-12T09:46:57.077Z,98229.13
2023-02-12T09:49:46.531Z,98233.19
2023-02-12T09:52:17.792Z,98235.09
2023-02-12T09:54:46.247Z,98235.41
2023-02-12T09:57:20.619Z,98223.63
2023-02-12T09:59:53.959Z,98226.03
2023-02-12T10:02:24.086Z,98233.31
2023-02-12T10:05:01.291Z,98226.44
2023-02-12T10:07:45.003Z,98233.25
2023-02-12T10:10:28.725Z,98236.34
2023-02-12T10:12:59.900Z,98228.81
2023-02-12T10:15:39.894Z,98234.63
2023-02-12T10:18:23.154Z,98228.31
2023-02-12T10:21:02.060Z,98218.84
2023-02-12T10:23:57.460Z,98229.50
2023-02-12T10:26:29.794Z,98231.28
2023-02-12T10:29:02.482Z,98218.84
2023-02-12T10:31:34.089Z,98221.69
2023-02-12T10:34:15.120Z,98221.97
2023-02-12T10:36:45.995Z,98224.38
2023-02-12T10:39:20.897Z,98228.31
2023-02-12T10:41:53.778Z,98219.50
2023-02-12T10:44:21.862Z,98203.59
2023-02-12T10:46:49.696Z,98221.56
2023-02-12T10:49:20.408Z,98218.16
2023-02-12T10:52:13.781Z,98199.94
2023-02-12T10:54:44.024Z,98208.94
2023-02-12T10:57:20.694Z,98207.75
2023-02-12T10:59:50.707Z,98206.78
2023-02-12T11:02:24.820Z,98200.84
2023-02-12T11:04:55.753Z,98186.19
2023-02-12T11:07:24.594Z,98184.03
2023-02-12T11:09:54.287Z,98179.84
2023-02-12T11:12:29.868Z,98170.97
2023-02-12T11:15:00.727Z,98165.63
2023-02-12T11:17:38.457Z,98166.88
2023-02-12T11:20:21.917Z,98157.75
2023-02-12T11:22:55.085Z,98162.31
2023-02-12T11:25:24.679Z,98160.16
2023-02-12T11:28:06.034Z,98165.22
2023-02-12T11:30:34.729Z,98155.59
2023-02-12T11:33:23.549Z,98149.53
2023-02-12T11:35:56.425Z,98158.16
2023-02-12T11:38:34.262Z,98155.53
2023-02-12T11:41:08.217Z,98145.53
2023-02-12T11:43:39.695Z,98149.84
2023-02-12T11:46:11.763Z,98154.69
2023-02-12T11:48:42.381Z,98138.50
2023-02-12T11:51:21.745Z,98125.19
2023-02-12T11:53:52.801Z,98133.72
2023-02-12T11:56:21.720Z,98129.06
2023-02-12T11:58:51.035Z,98126.13
2023-02-12T12:01:23.172Z,98125.75
2023-02-12T12:03:54.300Z,98124.84
2023-02-12T12:06:32.692Z,98114.94
2023-02-12T12:09:07.822Z,98106.81
2023-02-12T12:11:42.268Z,98104.25
2023-02-12T12:14:17.921Z,98100.22
2023-02-12T12:17:13.120Z,98105.09
2023-02-12T12:19:54.876Z,98108.50
2023-02-12T12:22:37.241Z,98108.63
2023-02-12T12:25:08.209Z,98103.47
2023-02-12T12:27:59.498Z,98103.03
2023-02-12T12:30:38.833Z,98111.56
2023-02-12T12:33:14.395Z,98105.41
2023-02-12T12:35:55.375Z,98106.25
2023-02-12T12:38:36.530Z,98094.16
2023-02-12T12:41:17.389Z,98086.38
2023-02-12T12:43:55.345Z,98083.31
2023-02-12T12:46:38.870Z,98083.88
2023-02-12T12:49:33.133Z,98072.28
2023-02-12T12:52:23.930Z,98075.44
2023-02-12T12:55:07.336Z,98066.56
2023-02-12T12:57:47.786Z,98075.13
2023-02-12T13:00:41.996Z,98072.41
2023-02-12T13:03:34.059Z,98070.25
2023-02-12T13:06:30.784Z,98062.44
2023-02-12T13:09:21.135Z,98069.75
2023-02-12T13:12:14.894Z,98072.41
2023-02-12T13:14:50.043Z,98078.50
2023-02-12T13:17:24.671Z,98069.13
2023-02-12T13:20:06.157Z,98073.78
2023-02-12T13:22:42.102Z,98061.22
2023-02-12T13:25:23.560Z,98069.84
2023-02-12T13:27:54.505Z,98075.63
2023-02-12T13:30:26.544Z,98071.31
2023-02-12T13:33:04.627Z,98062.91
2023-02-12T13:35:35.271Z,98064.03
2023-02-12T13:38:06.910Z,98055.28
2023-02-12T13:40:35.881Z,98055.75
2023-02-12T13:43:13.046Z,98064.41
2023-02-12T13:45:49.068Z,98059.81
2023-02-12T13:48:30.237Z,98061.47
2023-02-12T13:51:07.377Z,98057.41
2023-02-12T13:53:46.969Z,98071.38
2023-02-12T13:56:28.698Z,98071.66
2023-02-12T13:59:00.430Z,98068.25
2023-02-12T14:01:46.652Z,98065.88
2023-02-12T14:04:28.630Z,98067.44
2023-02-12T14:07:01.367Z,98070.66
2023-02-12T14:09:37.825Z,98056.75
2023-02-12T14:12:08.585Z,98063.09
2023-02-12T14:14:41.107Z,98061.75
2023-02-12T14:17:53.001Z,98062.66
2023-02-12T14:20:29.780Z,98058.13
2023-02-12T14:23:28.251Z,98044.53
2023-02-12T14:26:02.896Z,98055.50
2023-02-12T14:28:42.903Z,98052.34
2023-02-12T14:31:45.023Z,98049.41
2023-02-12T14:34:52.431Z,98056.84
2023-02-12T14:37:37.813Z,98052.44
2023-02-12T14:40:44.510Z,98058.22
2023-02-12T14:43:28.477Z,98056.28
2023-02-12T14:45:58.132Z,98051.63
2023-02-12T14:48:52.500Z,98056.47
2023-02-12T14:51:25.490Z,98054.09
2023-02-12T14:53:56.169Z,98055.09
2023-02-12T14:56:24.880Z,98051.31
2023-02-12T14:58:55.854Z,98056.31
2023-02-12T15:01:32.268Z,98050.78
2023-02-12T15:04:13.086Z,98020.97
2023-02-12T15:06:49.610Z,98052.25
2023-02-12T15:09:28.067Z,98047.28
2023-02-12T15:12:04.230Z,98050.78
2023-02-12T15:14:35.987Z,98052.25
2023-02-12T15:17:10.081Z,98059.53
2023-02-12T15:19:48.240Z,98061.09
2023-02-12T15:22:22.317Z,98039.94
2023-02-12T15:24:50.563Z,98046.91
2023-02-12T15:27:20.148Z,98041.75
2023-02-12T15:29:51.059Z,98045.81
2023-02-12T15:32:23.361Z,98044.34
2023-02-12T15:34:54.289Z,98049.41
2023-02-12T15:37:26.519Z,98054.47
2023-02-12T15:39:57.266Z,98043.25
2023-02-12T15:42:33.098Z,98058.97
2023-02-12T15:45:20.501Z,98055.94
2023-02-12T15:48:00.465Z,98053.00
2023-02-12T15:50:31.397Z,98053.97
2023-02-12T15:52:59.816Z,98050.97
2023-02-12T15:55:30.583Z,98049.59
2023-02-12T15:58:00.382Z,98058.13
2023-02-12T16:00:36.801Z,98068.16
2023-02-12T16:03:05.107Z,98053.69
2023-02-12T16:05:35.505Z,98054.59
2023-02-12T16:08:03.732Z,98049.44
2023-02-12T16:10:31.785Z,98043.81
2023-02-12T16:13:00.133Z,98048.56
2023-02-12T16:15:31.670Z,98056.97
2023-02-12T16:18:04.098Z,98057.47
2023-02-12T16:20:35.127Z,98053.44
2023-02-12T16:23:08.403Z,98064.16
2023-02-12T16:25:37.815Z,98054.28
2023-02-12T16:28:08.038Z,98060.38
2023-02-12T16:30:38.812Z,98073.81
2023-02-12T16:33:27.074Z,98064.91
2023-02-12T16:36:05.066Z,98072.66
2023-02-12T16:38:42.039Z,98069.56
2023-02-12T16:41:21.642Z,98079.34
2023-02-12T16:43:52.215Z,98076.97
2023-02-12T16:46:20.657Z,98081.47
2023-02-12T16:48:51.783Z,98073.19
2023-02-12T16:51:26.654Z,98079.00
2023-02-12T16:53:57.520Z,98092.41
2023-02-12T16:56:28.424Z,98089.28
2023-02-12T16:58:59.106Z,98083.78
2023-02-12T17:01:28.648Z,98096.91
2023-02-12T17:03:57.901Z,98089.31
2023-02-12T17:06:29.580Z,98089.44
2023-02-12T17:08:57.530Z,98093.94
2023-02-12T17:11:27.064Z,98101.25
2023-02-12T17:13:56.523Z,98097.59
2023-02-12T17:16:32.587Z,98075.69
2023-02-12T17:19:01.239Z,98102.59
2023-02-12T17:21:38.077Z,98099.09
2023-02-12T17:24:06.581Z,98096.94
2023-02-12T17:26:34.642Z,98113.22
2023-02-12T17:29:05.522Z,98119.53
2023-02-12T17:31:37.672Z,98114.50
2023-02-12T17:34:05.950Z,98113.84
2023-02-12T17:36:35.609Z,98112.25
2023-02-12T17:39:05.979Z,98118.00
2023-02-12T17:41:36.282Z,98114.94
2023-02-12T17:44:04.355Z,98120.25
2023-02-12T17:46:32.388Z,98110.09
2023-02-12T17:49:00.638Z,98127.34
2023-02-12T17:51:28.782Z,98107.94
2023-02-12T17:53:58.050Z,98120.69
2023-02-12T17:56:28.248Z,98123.25
2023-02-12T17:58:56.061Z,98106.53
2023-02-12T18:01:25.091Z,98135.75
2023-02-12T18:03:55.514Z,98128.75
2023-02-12T18:06:25.867Z,98115.53
2023-02-12T18:08:54.224Z,98126.75
2023-02-12T18:11:23.647Z,98127.00
2023-02-12T18:13:55.727Z,98121.84
2023-02-12T18:16:24.427Z,98137.34
2023-02-12T18:18:52.269Z,98143.78
2023-02-12T18:21:20.122Z,98127.28
2023-02-12T18:23:48.108Z,98086.97
2023-02-12T18:26:17.778Z,98134.50
2023-02-12T18:28:47.565Z,98134.84
2023-02-12T18:31:15.894Z,98144.91
2023-02-12T18:33:43.751Z,98141.50
2023-02-12T18:36:13.953Z,98143.28
2023-02-12T18:38:43.211Z,98148.47
2023-02-12T18:41:13.651Z,98150.00
2023-02-12T18:43:43.402Z,98141.56
2023-02-12T18:46:14.991Z,98139.50
2023-02-12T18:48:43.774Z,98149.03
2023-02-12T18:51:15.308Z,98148.47
2023-02-12T18:53:43.283Z,98146.97
2023-02-12T18:56:12.593Z,98141.00
2023-02-12T18:58:40.640Z,98136.63
2023-02-12T19:01:17.647Z,98125.44
2023-02-12T19:03:46.183Z,98138.34
2023-02-12T19:06:14.266Z,98133.91
2023-02-12T19:08:42.338Z,98130.13
2023-02-12T19:11:13.360Z,98139.06
2023-02-12T19:13:42.458Z,98138.97
2023-02-12T19:16:12.828Z,98136.84
2023-02-12T19:18:42.322Z,98134.66
2023-02-12T19:21:11.756Z,98150.69
2023-02-12T19:23:39.842Z,98134.34
2023-02-12T19:26:08.978Z,98151.69
2023-02-12T19:28:38.223Z,98139.22
2023-02-12T19:31:15.275Z,98140.66
2023-02-12T19:33:45.615Z,98149.59
2023-02-12T19:36:15.180Z,98147.16
2023-02-12T19:38:43.114Z,98140.59
2023-02-12T19:41:12.623Z,98145.50
2023-02-12T19:43:41.141Z,98146.75
2023-02-12T19:46:11.604Z,98149.44
2023-02-12T19:48:39.550Z,98149.34
2023-02-12T19:51:10.048Z,98142.84
2023-02-12T19:53:37.937Z,98146.97
2023-02-12T19:56:07.335Z,98146.69
2023-02-12T19:58:36.169Z,98146.44
2023-02-12T20:01:10.444Z,98132.59
2023-02-12T20:03:38.463Z,98139.91
2023-02-12T20:06:10.976Z,98133.59
2023-02-12T20:08:41.413Z,98133.53
2023-02-12T20:11:11.139Z,98146.78
2023-02-12T20:13:40.900Z,98141.00
2023-02-12T20:16:11.290Z,98146.91
2023-02-12T20:18:39.890Z,98137.69
2023-02-12T20:21:14.284Z,98138.28
2023-02-12T20:23:42.218Z,98144.41
2023-02-12T20:26:11.914Z,98132.53
2023-02-12T20:28:39.929Z,98146.91
2023-02-12T20:31:11.408Z,98148.78
2023-02-12T20:33:39.694Z,98141.25
2023-02-12T20:36:09.099Z,98139.09
2023-02-12T20:38:39.190Z,98155.00
2023-02-12T20:41:08.353Z,98147.88
2023-02-12T20:43:37.289Z,98163.84
2023-02-12T20:46:06.348Z,98165.97
2023-02-12T20:48:34.158Z,98165.03
2023-02-12T20:51:05.742Z,98163.06
2023-02-12T20:53:34.837Z,98168.44
2023-02-12T20:56:05.678Z,98169.50
2023-02-12T20:58:33.790Z,98173.09
2023-02-12T21:01:07.135Z,98165.84
2023-02-12T21:03:35.090Z,98170.28
2023-02-12T21:06:03.467Z,98167.50
2023-02-12T21:08:31.392Z,98172.78
2023-02-12T21:11:00.684Z,98177.94
2023-02-12T21:13:29.870Z,98165.47
2023-02-12T21:16:09.236Z,98183.50
2023-02-12T21:18:37.125Z,98181.44
2023-02-12T21:21:07.556Z,98188.97
2023-02-12T21:23:35.791Z,98188.38
2023-02-12T21:26:05.350Z,98182.13
2023-02-12T21:28:35.500Z,98188.91
2023-02-12T21:31:08.135Z,98184.66
2023-02-12T21:33:36.553Z,98156.00
2023-02-12T21:36:07.259Z,98169.06
2023-02-12T21:38:37.891Z,98161.78
2023-02-12T21:41:10.460Z,98185.66
2023-02-12T21:43:40.672Z,98175.13
2023-02-12T21:46:09.830Z,98171.22
2023-02-12T21:48:39.061Z,98183.75
2023-02-12T21:51:08.054Z,98176.53
2023-02-12T21:53:35.832Z,98178.06
2023-02-12T21:56:04.876Z,98187.38
2023-02-12T21:58:33.157Z,98183.72
2023-02-12T22:01:09.046Z,98179.00
2023-02-12T22:03:37.603Z,98192.28
2023-02-12T22:06:07.737Z,98184.56
2023-02-12T22:08:36.085Z,98198.63
2023-02-12T22:11:04.550Z,98192.59
2023-02-12T22:13:32.981Z,98195.69
2023-02-12T22:16:10.274Z,98197.66
2023-02-12T22:18:38.525Z,98182.97
2023-02-12T22:21:07.964Z,98183.06
2023-02-12T22:23:37.203Z,98191.13
2023-02-12T22:26:06.069Z,98193.81
2023-02-12T22:28:33.998Z,98190.34
2023-02-12T22:31:06.739Z,98183.53
2023-02-12T22:33:36.139Z,98207.56
2023-02-12T22:36:06.234Z,98201.88
2023-02-12T22:38:34.635Z,98197.16
2023-02-12T22:41:02.475Z,98213.53
2023-02-12T22:43:30.976Z,98198.56
2023-02-12T22:45:59.294Z,98196.19
2023-02-12T22:48:28.903Z,98217.03
2023-02-12T22:50:58.815Z,98218.00
2023-02-12T22:53:27.197Z,98209.09
2023-02-12T22:55:55.072Z,98217.84
2023-02-12T22:58:22.958Z,98220.44
2023-02-12T23:00:50.725Z,98212.41
2023-02-12T23:03:18.500Z,98210.72
2023-02-12T23:05:46.318Z,98218.75
2023-02-12T23:08:15.468Z,98218.50
2023-02-12T23:10:43.206Z,98224.47
2023-02-12T23:13:21.257Z,98224.31
2023-02-12T23:15:56.145Z,98221.72
2023-02-12T23:18:24.815Z,98234.06
2023-02-12T23:20:53.279Z,98217.69
2023-02-12T23:23:23.013Z,98232.69
2023-02-12T23:25:51.214Z,98230.19
2023-02-12T23:28:19.049Z,98224.88
2023-02-12T23:30:48.545Z,98235.84
2023-02-12T23:33:16.626Z,98241.53
2023-02-12T23:35:45.832Z,98219.97
2023-02-12T23:38:13.908Z,98238.16
2023-02-12T23:40:43.593Z,98237.16
2023-02-12T23:43:11.597Z,98223.94
2023-02-12T23:45:39.440Z,98217.53
2023-02-12T23:48:07.370Z,98233.25
2023-02-12T23:50:35.212Z,98233.22
2023-02-12T23:53:03.138Z,98229.06
2023-02-12T23:55:31.063Z,98233.34
2023-02-12T23:58:00.205Z,98231.56
